sensor_id;sensor_type;location;lat;lon;timestamp;P1;durP1;ratioP1;P2;durP2;ratioP2
17441;SDS011;8838;50.144;8.176;2022-08-26T18:31:27;22.15;;;17.08;;
17441;SDS011;8838;50.144;8.176;2022-08-26T18:34:02;21.83;;;17.90;;
17441;SDS011;8838;50.144;8.176;2022-08-26T18:36:32;24.40;;;17.58;;
17441;SDS011;8838;50.144;8.176;2022-08-26T18:39:01;23.30;;;16.85;;
17441;SDS011;8838;50.144;8.176;2022-08-26T18:41:30;23.52;;;16.73;;
17441;SDS011;8838;50.144;8.176;2022-08-26T18:43:58;22.50;;;15.63;;
17441;SDS011;8838;50.144;8.176;2022-08-26T18:46:27;21.13;;;15.98;;
17441;SDS011;8838;50.144;8.176;2022-08-26T18:48:54;19.23;;;15.60;;
17441;SDS011;8838;50.144;8.176;2022-08-26T18:51:23;22.90;;;15.27;;
17441;SDS011;8838;50.144;8.176;2022-08-26T18:53:52;19.55;;;14.68;;
17441;SDS011;8838;50.144;8.176;2022-08-26T18:56:19;19.15;;;13.93;;
17441;SDS011;8838;50.144;8.176;2022-08-26T18:58:46;21.50;;;14.48;;
17441;SDS011;8838;50.144;8.176;2022-08-26T19:01:13;21.63;;;13.75;;
17441;SDS011;8838;50.144;8.176;2022-08-26T19:03:42;19.00;;;13.60;;
17441;SDS011;8838;50.144;8.176;2022-08-26T19:06:11;21.48;;;12.82;;
17441;SDS011;8838;50.144;8.176;2022-08-26T19:08:39;21.52;;;13.43;;
17441;SDS011;8838;50.144;8.176;2022-08-26T19:11:06;20.83;;;13.35;;
17441;SDS011;8838;50.144;8.176;2022-08-26T19:13:32;24.63;;;13.23;;
17441;SDS011;8838;50.144;8.176;2022-08-26T19:16:00;20.00;;;13.35;;
17441;SDS011;8838;50.144;8.176;2022-08-26T19:18:27;19.48;;;12.50;;
17441;SDS011;8838;50.144;8.176;2022-08-26T19:20:55;21.33;;;12.68;;
17441;SDS011;8838;50.144;8.176;2022-08-26T19:23:22;20.17;;;12.32;;
17441;SDS011;8838;50.144;8.176;2022-08-26T19:25:51;19.92;;;13.45;;
17441;SDS011;8838;50.144;8.176;2022-08-26T19:28:19;22.23;;;13.38;;
17441;SDS011;8838;50.144;8.176;2022-08-26T19:30:46;19.98;;;12.35;;
17441;SDS011;8838;50.144;8.176;2022-08-26T19:33:14;21.00;;;12.73;;
17441;SDS011;8838;50.144;8.176;2022-08-26T19:35:42;22.60;;;12.98;;
17441;SDS011;8838;50.144;8.176;2022-08-26T19:38:11;19.45;;;12.30;;
17441;SDS011;8838;50.144;8.176;2022-08-26T19:40:38;21.98;;;11.75;;
17441;SDS011;8838;50.144;8.176;2022-08-26T19:43:05;20.83;;;12.35;;
17441;SDS011;8838;50.144;8.176;2022-08-26T19:45:32;16.70;;;11.88;;
17441;SDS011;8838;50.144;8.176;2022-08-26T19:48:00;19.77;;;12.25;;
17441;SDS011;8838;50.144;8.176;2022-08-26T19:50:28;18.67;;;11.25;;
17441;SDS011;8838;50.144;8.176;2022-08-26T19:52:58;19.15;;;11.48;;
17441;SDS011;8838;50.144;8.176;2022-08-26T19:55:26;17.10;;;11.68;;
17441;SDS011;8838;50.144;8.176;2022-08-26T19:57:53;18.15;;;11.93;;
17441;SDS011;8838;50.144;8.176;2022-08-26T20:00:21;16.92;;;11.95;;
17441;SDS011;8838;50.144;8.176;2022-08-26T20:02:50;19.17;;;11.48;;
17441;SDS011;8838;50.144;8.176;2022-08-26T20:05:18;16.42;;;11.32;;
17441;SDS011;8838;50.144;8.176;2022-08-26T20:07:46;16.65;;;12.15;;
17441;SDS011;8838;50.144;8.176;2022-08-26T20:10:14;18.83;;;11.93;;
17441;SDS011;8838;50.144;8.176;2022-08-26T20:12:45;20.88;;;11.70;;
17441;SDS011;8838;50.144;8.176;2022-08-26T20:15:13;20.52;;;11.63;;
17441;SDS011;8838;50.144;8.176;2022-08-26T20:17:40;15.82;;;12.10;;
17441;SDS011;8838;50.144;8.176;2022-08-26T20:20:08;16.77;;;11.52;;
17441;SDS011;8838;50.144;8.176;2022-08-26T20:22:53;16.75;;;11.13;;
17441;SDS011;8838;50.144;8.176;2022-08-26T20:25:20;16.38;;;12.00;;
17441;SDS011;8838;50.144;8.176;2022-08-26T20:27:49;15.05;;;11.45;;
17441;SDS011;8838;50.144;8.176;2022-08-26T20:30:16;23.50;;;12.15;;
17441;SDS011;8838;50.144;8.176;2022-08-26T20:32:43;16.70;;;11.63;;
17441;SDS011;8838;50.144;8.176;2022-08-26T20:35:12;20.88;;;11.95;;
17441;SDS011;8838;50.144;8.176;2022-08-26T20:37:39;16.80;;;11.43;;
17441;SDS011;8838;50.144;8.176;2022-08-26T20:40:07;17.05;;;10.80;;
17441;SDS011;8838;50.144;8.176;2022-08-26T20:42:35;18.27;;;11.07;;
17441;SDS011;8838;50.144;8.176;2022-08-26T20:45:04;14.45;;;11.35;;
17441;SDS011;8838;50.144;8.176;2022-08-26T20:47:32;17.02;;;10.68;;
17441;SDS011;8838;50.144;8.176;2022-08-26T20:49:59;18.95;;;11.40;;
17441;SDS011;8838;50.144;8.176;2022-08-26T20:52:26;15.70;;;11.05;;
17441;SDS011;8838;50.144;8.176;2022-08-26T20:54:53;16.75;;;10.70;;
17441;SDS011;8838;50.144;8.176;2022-08-26T20:57:20;17.80;;;11.80;;
17441;SDS011;8838;50.144;8.176;2022-08-26T20:59:47;21.38;;;10.57;;
17441;SDS011;8838;50.144;8.176;2022-08-26T21:02:16;18.48;;;10.85;;
17441;SDS011;8838;50.144;8.176;2022-08-26T21:04:43;17.48;;;10.85;;
17441;SDS011;8838;50.144;8.176;2022-08-26T21:07:13;16.00;;;11.50;;
17441;SDS011;8838;50.144;8.176;2022-08-26T21:09:40;17.05;;;10.68;;
17441;SDS011;8838;50.144;8.176;2022-08-26T21:12:06;15.38;;;10.73;;
17441;SDS011;8838;50.144;8.176;2022-08-26T21:14:33;14.57;;;11.20;;
17441;SDS011;8838;50.144;8.176;2022-08-26T21:17:03;15.75;;;10.80;;
17441;SDS011;8838;50.144;8.176;2022-08-26T21:19:31;19.00;;;11.07;;
17441;SDS011;8838;50.144;8.176;2022-08-26T21:21:58;14.55;;;10.30;;
17441;SDS011;8838;50.144;8.176;2022-08-26T21:24:25;21.10;;;11.40;;
17441;SDS011;8838;50.144;8.176;2022-08-26T21:26:52;15.45;;;10.32;;
17441;SDS011;8838;50.144;8.176;2022-08-26T21:29:18;18.55;;;10.57;;
17441;SDS011;8838;50.144;8.176;2022-08-26T21:31:46;14.13;;;10.18;;
17441;SDS011;8838;50.144;8.176;2022-08-26T21:34:13;14.43;;;9.38;;
17441;SDS011;8838;50.144;8.176;2022-08-26T21:36:43;14.82;;;9.95;;
17441;SDS011;8838;50.144;8.176;2022-08-26T21:39:11;13.80;;;10.20;;
17441;SDS011;8838;50.144;8.176;2022-08-26T21:41:38;14.13;;;10.10;;
17441;SDS011;8838;50.144;8.176;2022-08-26T21:44:05;18.80;;;9.73;;
17441;SDS011;8838;50.144;8.176;2022-08-26T21:46:34;18.33;;;10.73;;
17441;SDS011;8838;50.144;8.176;2022-08-26T21:49:03;15.85;;;10.63;;
17441;SDS011;8838;50.144;8.176;2022-08-26T21:51:33;17.08;;;10.68;;
17441;SDS011;8838;50.144;8.176;2022-08-26T21:54:04;17.70;;;10.18;;
17441;SDS011;8838;50.144;8.176;2022-08-26T21:56:33;15.95;;;10.95;;
17441;SDS011;8838;50.144;8.176;2022-08-26T21:59:03;18.35;;;10.30;;
17441;SDS011;8838;50.144;8.176;2022-08-26T22:01:32;14.40;;;10.45;;
17441;SDS011;8838;50.144;8.176;2022-08-26T22:03:59;16.15;;;10.27;;
17441;SDS011;8838;50.144;8.176;2022-08-26T22:06:28;16.20;;;9.93;;
17441;SDS011;8838;50.144;8.176;2022-08-26T22:08:56;13.48;;;9.88;;
17441;SDS011;8838;50.144;8.176;2022-08-26T22:11:25;16.58;;;9.65;;
17441;SDS011;8838;50.144;8.176;2022-08-26T22:13:53;17.95;;;10.32;;
17441;SDS011;8838;50.144;8.176;2022-08-26T22:16:20;18.67;;;10.23;;
17441;SDS011;8838;50.144;8.176;2022-08-26T22:18:47;16.25;;;9.80;;
17441;SDS011;8838;50.144;8.176;2022-08-26T22:21:15;17.27;;;9.75;;
17441;SDS011;8838;50.144;8.176;2022-08-26T22:23:44;17.30;;;10.68;;
17441;SDS011;8838;50.144;8.176;2022-08-26T22:26:14;16.05;;;10.30;;
17441;SDS011;8838;50.144;8.176;2022-08-26T22:28:43;15.60;;;10.55;;
17441;SDS011;8838;50.144;8.176;2022-08-26T22:31:10;15.07;;;10.32;;
17441;SDS011;8838;50.144;8.176;2022-08-26T22:33:39;16.02;;;10.13;;
17441;SDS011;8838;50.144;8.176;2022-08-26T22:36:07;16.75;;;10.77;;
17441;SDS011;8838;50.144;8.176;2022-08-26T22:38:40;18.85;;;10.70;;
17441;SDS011;8838;50.144;8.176;2022-08-26T22:41:07;17.75;;;10.15;;
17441;SDS011;8838;50.144;8.176;2022-08-26T22:43:34;18.95;;;11.02;;
17441;SDS011;8838;50.144;8.176;2022-08-26T22:46:03;14.68;;;9.63;;
17441;SDS011;8838;50.144;8.176;2022-08-26T22:48:33;16.25;;;10.88;;
17441;SDS011;8838;50.144;8.176;2022-08-26T22:51:00;14.77;;;11.05;;
17441;SDS011;8838;50.144;8.176;2022-08-26T22:53:27;16.15;;;10.10;;
17441;SDS011;8838;50.144;8.176;2022-08-26T22:55:54;14.73;;;10.13;;
17441;SDS011;8838;50.144;8.176;2022-08-26T22:58:22;16.92;;;10.18;;
17441;SDS011;8838;50.144;8.176;2022-08-26T23:00:50;16.98;;;10.75;;
17441;SDS011;8838;50.144;8.176;2022-08-26T23:03:18;16.00;;;10.65;;
17441;SDS011;8838;50.144;8.176;2022-08-26T23:05:45;16.10;;;10.75;;
17441;SDS011;8838;50.144;8.176;2022-08-26T23:08:13;17.95;;;11.15;;
17441;SDS011;8838;50.144;8.176;2022-08-26T23:10:42;21.23;;;11.00;;
17441;SDS011;8838;50.144;8.176;2022-08-26T23:13:10;16.77;;;10.85;;
17441;SDS011;8838;50.144;8.176;2022-08-26T23:15:38;19.67;;;11.55;;
17441;SDS011;8838;50.144;8.176;2022-08-26T23:18:06;17.30;;;10.77;;
17441;SDS011;8838;50.144;8.176;2022-08-26T23:20:35;17.65;;;11.15;;
17441;SDS011;8838;50.144;8.176;2022-08-26T23:23:03;15.32;;;10.88;;
17441;SDS011;8838;50.144;8.176;2022-08-26T23:25:30;17.83;;;10.55;;
17441;SDS011;8838;50.144;8.176;2022-08-26T23:27:57;19.98;;;12.00;;
17441;SDS011;8838;50.144;8.176;2022-08-26T23:30:26;17.92;;;10.85;;
17441;SDS011;8838;50.144;8.176;2022-08-26T23:32:55;18.05;;;10.85;;
17441;SDS011;8838;50.144;8.176;2022-08-26T23:35:22;18.40;;;10.82;;
17441;SDS011;8838;50.144;8.176;2022-08-26T23:37:50;17.70;;;11.05;;
17441;SDS011;8838;50.144;8.176;2022-08-26T23:40:18;16.73;;;10.88;;
17441;SDS011;8838;50.144;8.176;2022-08-26T23:42:49;21.20;;;11.13;;
17441;SDS011;8838;50.144;8.176;2022-08-26T23:45:16;18.33;;;11.38;;
17441;SDS011;8838;50.144;8.176;2022-08-26T23:47:44;15.77;;;10.93;;
17441;SDS011;8838;50.144;8.176;2022-08-26T23:50:11;16.83;;;9.95;;
17441;SDS011;8838;50.144;8.176;2022-08-26T23:52:39;20.25;;;11.10;;
17441;SDS011;8838;50.144;8.176;2022-08-26T23:55:25;16.77;;;10.15;;
17441;SDS011;8838;50.144;8.176;2022-08-26T23:57:52;23.08;;;11.95;;
